地図

経路データ

SID SEASON NUMBER BASIN SUBBASIN NAME ISO_TIME NATURE LAT LON WMO_WIND WMO_PRES WMO_AGENCY TRACK_TYPE DIST2LAND LANDFALL IFLAG USA_AGENCY USA_ATCF_ID USA_LAT USA_LON USA_RECORD USA_STATUS USA_WIND USA_PRES USA_SSHS USA_R34_NE USA_R34_SE USA_R34_SW USA_R34_NW USA_R50_NE USA_R50_SE USA_R50_SW USA_R50_NW USA_R64_NE USA_R64_SE USA_R64_SW USA_R64_NW USA_POCI USA_ROCI USA_RMW USA_EYE TOKYO_LAT TOKYO_LON TOKYO_GRADE TOKYO_WIND TOKYO_PRES TOKYO_R50_DIR TOKYO_R50_LONG TOKYO_R50_SHORT TOKYO_R30_DIR TOKYO_R30_LONG TOKYO_R30_SHORT TOKYO_LAND CMA_LAT CMA_LON CMA_CAT CMA_WIND CMA_PRES HKO_LAT HKO_LON HKO_CAT HKO_WIND HKO_PRES NEWDELHI_LAT NEWDELHI_LON NEWDELHI_GRADE NEWDELHI_WIND NEWDELHI_PRES NEWDELHI_CI NEWDELHI_DP NEWDELHI_POCI REUNION_LAT REUNION_LON REUNION_TYPE REUNION_WIND REUNION_PRES REUNION_TNUM REUNION_CI REUNION_RMW REUNION_R34_NE REUNION_R34_SE REUNION_R34_SW REUNION_R34_NW REUNION_R50_NE REUNION_R50_SE REUNION_R50_SW REUNION_R50_NW REUNION_R64_NE REUNION_R64_SE REUNION_R64_SW REUNION_R64_NW BOM_LAT BOM_LON BOM_TYPE BOM_WIND BOM_PRES BOM_TNUM BOM_CI BOM_RMW BOM_R34_NE BOM_R34_SE BOM_R34_SW BOM_R34_NW BOM_R50_NE BOM_R50_SE BOM_R50_SW BOM_R50_NW BOM_R64_NE BOM_R64_SE BOM_R64_SW BOM_R64_NW BOM_ROCI BOM_POCI BOM_EYE BOM_POS_METHOD BOM_PRES_METHOD NADI_LAT NADI_LON NADI_CAT NADI_WIND NADI_PRES WELLINGTON_LAT WELLINGTON_LON WELLINGTON_WIND WELLINGTON_PRES DS824_LAT DS824_LON DS824_STAGE DS824_WIND DS824_PRES TD9636_LAT TD9636_LON TD9636_STAGE TD9636_WIND TD9636_PRES TD9635_LAT TD9635_LON TD9635_WIND TD9635_PRES TD9635_ROCI NEUMANN_LAT NEUMANN_LON NEUMANN_CLASS NEUMANN_WIND NEUMANN_PRES MLC_LAT MLC_LON MLC_CLASS MLC_WIND MLC_PRES USA_GUST BOM_GUST BOM_GUST_PER REUNION_GUST REUNION_GUST_PER USA_SEAHGT USA_SEARAD_NE USA_SEARAD_SE USA_SEARAD_SW USA_SEARAD_NW STORM_SPEED STORM_DIR
1967269N15341 1967 108 NA NA NOT_NAMED 1967-09-25 12:00:00 TS 15.1000 -18.7000 hurdat_atl main 136 136 O_____________ hurdat_atl AL171967 15.1000 -18.7000 TD -1 8 277
1967269N15341 1967 108 NA NA NOT_NAMED 1967-09-25 15:00:00 TS 15.1477 -19.1075 main 177 177 P_____________ AL171967 15.1477 -19.1075 TD -1 8 277
1967269N15341 1967 108 NA NA NOT_NAMED 1967-09-25 18:00:00 TS 15.2000 -19.5000 hurdat_atl main 222 222 O_____________ hurdat_atl AL171967 15.2000 -19.5000 TD -1 7 279
1967269N15341 1967 108 NA NA NOT_NAMED 1967-09-25 21:00:00 TS 15.2574 -19.8650 main 266 266 P_____________ AL171967 15.2574 -19.8650 TD -1 7 278
1967269N15341 1967 108 NA NA NOT_NAMED 1967-09-26 00:00:00 TS 15.3000 -20.2000 hurdat_atl main 297 297 O_____________ hurdat_atl AL171967 15.3000 -20.2000 TD -1 6 274
1967269N15341 1967 108 NA NA NOT_NAMED 1967-09-26 03:00:00 TS 15.2999 -20.5001 main 329 329 P_____________ AL171967 15.2999 -20.5001 TD -1 6 270
1967269N15341 1967 108 NA NA NOT_NAMED 1967-09-26 06:00:00 TS 15.3000 -20.8000 hurdat_atl main 360 360 O_____________ hurdat_atl AL171967 15.3000 -20.8000 TD -1 6 274
1967269N15341 1967 108 NA NA NOT_NAMED 1967-09-26 09:00:00 TS 15.3424 -21.1200 main 392 392 P_____________ AL171967 15.3424 -21.1200 TD -1 7 278
1967269N15341 1967 108 NA NA NOT_NAMED 1967-09-26 12:00:00 TS 15.4000 -21.5000 hurdat_atl main 436 436 O_____________ hurdat_atl AL171967 15.4000 -21.5000 TD -1 9 277
1967269N15341 1967 108 NA NA NOT_NAMED 1967-09-26 15:00:00 TS 15.4427 -22.0075 main 489 489 P_____________ AL171967 15.4427 -22.0075 TD -1 10 276
1967269N15341 1967 108 NA NA NOT_NAMED 1967-09-26 18:00:00 TS 15.5000 -22.5000 hurdat_atl main 544 544 O_____________ hurdat_atl AL171967 15.5000 -22.5000 TD -1 8 280
1967269N15341 1967 108 NA NA NOT_NAMED 1967-09-26 21:00:00 TS 15.5847 -22.8151 main 577 577 P_____________ AL171967 15.5847 -22.8151 TD -1 6 289
1967269N15341 1967 108 NA NA NOT_NAMED 1967-09-27 00:00:00 TS 15.7000 -23.1000 hurdat_atl main 611 611 O_____________ hurdat_atl AL171967 15.7000 -23.1000 TD -1 7 291
1967269N15341 1967 108 NA NA NOT_NAMED 1967-09-27 03:00:00 TS 15.8502 -23.5224 main 657 657 P_____________ AL171967 15.8502 -23.5224 TD -1 8 291
1967269N15341 1967 108 NA NA NOT_NAMED 1967-09-27 06:00:00 TS 16.0000 -23.9000 hurdat_atl main 701 701 O_____________ hurdat_atl AL171967 16.0000 -23.9000 TD -1 6 293
1967269N15341 1967 108 NA NA NOT_NAMED 1967-09-27 09:00:00 TS 16.0697 -24.0503 main 724 724 P_____________ AL171967 16.0697 -24.0503 TD -1 4 305
1967269N15341 1967 108 NA NA NOT_NAMED 1967-09-27 12:00:00 TS 16.2000 -24.2000 hurdat_atl main 737 737 O_____________ hurdat_atl AL171967 16.2000 -24.2000 TD -1 7 312
1967269N15341 1967 108 NA NA NOT_NAMED 1967-09-27 15:00:00 TS 16.5277 -24.5846 main 786 786 P_____________ AL171967 16.5277 -24.5846 TD -1 10 312
1967269N15341 1967 108 NA NA NOT_NAMED 1967-09-27 18:00:00 TS 16.9000 -25.0000 hurdat_atl main 839 839 O_____________ hurdat_atl AL171967 16.9000 -25.0000 TD -1 9 314
1967269N15341 1967 108 NA NA NOT_NAMED 1967-09-27 21:00:00 TS 17.1648 -25.2653 main 879 879 P_____________ AL171967 17.1648 -25.2653 TD -1 7 316
1967269N15341 1967 108 NA NA NOT_NAMED 1967-09-28 00:00:00 TS 17.4000 -25.5000 hurdat_atl main 906 906 O_____________ hurdat_atl AL171967 17.4000 -25.5000 TD -1 7 314
1967269N15341 1967 108 NA NA NOT_NAMED 1967-09-28 03:00:00 TS 17.6726 -25.8149 main 947 947 P_____________ AL171967 17.6726 -25.8149 TD -1 8 311
1967269N15341 1967 108 NA NA NOT_NAMED 1967-09-28 06:00:00 TS 17.9000 -26.1000 hurdat_atl main 985 985 O_____________ hurdat_atl AL171967 17.9000 -26.1000 TD -1 6 309
1967269N15341 1967 108 NA NA NOT_NAMED 1967-09-28 09:00:00 TS 18.0299 -26.2826 main 1009 1009 P_____________ AL171967 18.0299 -26.2826 TD -1 3 305
1967269N15341 1967 108 NA NA NOT_NAMED 1967-09-28 12:00:00 TS 18.1000 -26.4000 hurdat_atl main 1020 O_____________ hurdat_atl AL171967 18.1000 -26.4000 TD -1 3 302

IBTrACS Databaseについて

本データベースは、米国NOAAが公開する1842年以降の世界の熱帯低気圧のベストトラックデータアーカイブInternational Best Track Archive for Climate Stewardship (IBTrACS)を、ウェブで閲覧しやすい形式に変換したものです。

最終更新日:2021-10-21